Time;durP1;ratioP1;P1;durP2;ratioP2;P2;SDS_P1;SDS_P2;PMS_P1;PMS_P2;Temp;Humidity;BMP_temperature;BMP_pressure;BME280_temperature;BME280_humidity;BME280_pressure;Samples;Min_cycle;Max_cycle;Signal;HPM_P1;HPM_P2
2021/10/24 00:00:50;;;;;;;18.58;7.85;;;;;;;-141.50;100.00;63355.56;4957164;28;20559;-82
2021/10/24 00:03:17;;;;;;;22.77;8.50;;;;;;;-141.50;100.00;63355.56;4975349;28;20059;-81
2021/10/24 00:05:44;;;;;;;23.88;9.05;;;;;;;-141.50;100.00;63355.56;4958659;28;20058;-82
2021/10/24 00:08:10;;;;;;;26.48;9.40;;;;;;;-141.50;100.00;63355.56;4975871;28;20054;-82
2021/10/24 00:10:37;;;;;;;22.02;8.80;;;;;;;-141.50;100.00;63355.56;4968488;28;20054;-83
2021/10/24 00:13:04;;;;;;;21.10;9.40;;;;;;;-141.50;100.00;63355.56;4967179;28;20061;-82
2021/10/24 00:15:30;;;;;;;21.80;9.00;;;;;;;-141.50;100.00;63355.56;4963344;28;20051;-82
2021/10/24 00:17:57;;;;;;;20.13;7.18;;;;;;;-141.50;100.00;63355.56;4960988;28;20058;-82
2021/10/24 00:20:23;;;;;;;23.02;7.50;;;;;;;-141.50;100.00;63355.56;4977727;28;20046;-82
2021/10/24 00:22:50;;;;;;;22.75;8.10;;;;;;;-141.50;100.00;63355.56;4961020;28;20317;-82
2021/10/24 00:25:17;;;;;;;30.75;8.93;;;;;;;-141.50;100.00;63355.56;4960283;28;20051;-82
2021/10/24 00:27:43;;;;;;;53.33;12.85;;;;;;;-141.50;100.00;63355.56;4959927;28;20046;-82
2021/10/24 00:30:10;;;;;;;49.28;13.10;;;;;;;-141.50;100.00;63355.56;4959862;28;20097;-82
2021/10/24 00:32:37;;;;;;;43.97;11.35;;;;;;;-141.50;100.00;63355.56;4959384;28;20499;-82
2021/10/24 00:35:05;;;;;;;39.38;10.85;;;;;;;-141.50;100.00;63355.56;4959066;28;20047;-82
2021/10/24 00:37:31;;;;;;;37.63;9.63;;;;;;;-141.50;100.00;63355.56;4976614;28;20046;-83
2021/10/24 00:39:58;;;;;;;36.30;9.05;;;;;;;-141.50;100.00;63355.56;4959277;28;20047;-81
2021/10/24 00:42:48;;;;;;;31.50;9.43;;;;;;;-141.50;100.00;63355.56;4959282;28;20411;-81
2021/10/24 00:45:16;;;;;;;26.05;8.57;;;;;;;-141.50;100.00;63355.56;4959693;28;20043;-82
2021/10/24 00:47:43;;;;;;;17.90;6.72;;;;;;;-141.50;100.00;63355.56;4958398;28;20069;-83
2021/10/24 00:50:11;;;;;;;18.65;6.60;;;;;;;-141.50;100.00;63355.56;4974878;28;20042;-82
2021/10/24 00:52:39;;;;;;;23.58;7.25;;;;;;;-141.50;100.00;63355.56;4958831;28;20058;-82
2021/10/24 00:55:07;;;;;;;23.13;7.18;;;;;;;-141.50;100.00;63355.56;4958504;28;20051;-82
2021/10/24 00:57:36;;;;;;;22.45;6.63;;;;;;;-141.50;100.00;63355.56;4957680;28;20079;-83
2021/10/24 01:00:06;;;;;;;21.80;7.40;;;;;;;-141.50;100.00;63355.56;4977024;28;20058;-82
2021/10/24 01:02:34;;;;;;;19.88;6.47;;;;;;;-141.50;100.00;63355.56;4976609;28;20046;-83
2021/10/24 01:05:04;;;;;;;16.98;6.80;;;;;;;-141.50;100.00;63355.56;4976563;28;20053;-82
2021/10/24 01:07:33;;;;;;;17.63;6.43;;;;;;;-141.50;100.00;63355.56;4975653;28;20515;-81
2021/10/24 01:10:00;;;;;;;16.45;6.00;;;;;;;-141.50;100.00;63355.56;4974102;28;20062;-82
2021/10/24 01:12:27;;;;;;;34.15;8.68;;;;;;;-141.50;100.00;63355.56;4958917;28;20089;-81
2021/10/24 01:14:54;;;;;;;28.67;8.18;;;;;;;-141.50;100.00;63355.56;4959211;28;20039;-82
2021/10/24 01:17:20;;;;;;;30.73;8.43;;;;;;;-141.50;100.00;63355.56;4958941;28;20049;-82
2021/10/24 01:19:47;;;;;;;22.98;8.18;;;;;;;-141.50;100.00;63355.56;4939737;29;20090;-82
2021/10/24 01:22:14;;;;;;;19.63;7.80;;;;;;;-141.50;100.00;63355.56;4940029;29;20058;-82
2021/10/24 01:24:41;;;;;;;30.67;9.15;;;;;;;-141.50;100.00;63355.56;4939998;29;20945;-83
2021/10/24 01:27:07;;;;;;;23.92;8.27;;;;;;;-141.50;100.00;63355.56;4939182;29;20065;-81
2021/10/24 01:29:34;;;;;;;24.27;8.13;;;;;;;-141.50;100.00;63355.56;4921872;29;20063;-80
2021/10/24 01:32:00;;;;;;;22.05;7.38;;;;;;;-141.50;100.00;63355.56;4942610;28;20042;-83
2021/10/24 01:34:27;;;;;;;27.98;8.32;;;;;;;-141.50;100.00;63355.56;4957395;28;20054;-82
2021/10/24 01:36:54;;;;;;;25.40;7.97;;;;;;;-141.50;100.00;63355.56;4941669;28;20054;-81
2021/10/24 01:39:20;;;;;;;24.75;7.63;;;;;;;-141.50;100.00;63355.56;4957286;28;20054;-83
2021/10/24 01:41:47;;;;;;;20.23;7.40;;;;;;;-141.50;100.00;63355.56;4957512;28;20051;-81
2021/10/24 01:44:17;;;;;;;21.65;7.68;;;;;;;-141.50;100.00;63355.56;4957170;28;20121;-82
2021/10/24 01:46:43;;;;;;;20.30;7.40;;;;;;;-141.50;100.00;63355.56;4974637;28;20049;-83
2021/10/24 01:49:10;;;;;;;23.10;8.07;;;;;;;-141.50;100.00;63355.56;4940868;28;20046;-80
2021/10/24 01:51:36;;;;;;;21.50;7.57;;;;;;;-141.50;100.00;63355.56;4953453;28;20053;-81
2021/10/24 01:54:03;;;;;;;18.23;7.70;;;;;;;-141.50;100.00;63355.56;4939736;28;20471;-82
2021/10/24 01:56:30;;;;;;;17.75;7.82;;;;;;;-141.50;100.00;63355.56;4939494;28;20047;-82
2021/10/24 01:58:57;;;;;;;23.33;8.00;;;;;;;-141.50;100.00;63355.56;4958591;28;20346;-81
2021/10/24 02:01:23;;;;;;;22.08;7.90;;;;;;;-141.50;100.00;63355.56;4956797;28;20038;-81
2021/10/24 02:03:50;;;;;;;21.25;8.23;;;;;;;-141.50;100.00;63355.56;4957664;28;20094;-82
2021/10/24 02:06:17;;;;;;;19.52;8.07;;;;;;;-141.50;100.00;63355.56;4955709;28;20047;-81
2021/10/24 02:08:43;;;;;;;16.52;7.63;;;;;;;-141.50;100.00;63355.56;4973887;28;20051;-81
2021/10/24 02:11:10;;;;;;;19.88;7.47;;;;;;;-141.50;100.00;63355.56;4971796;28;20527;-81
2021/10/24 02:13:37;;;;;;;16.17;7.28;;;;;;;-141.50;100.00;63355.56;4939433;28;20047;-81
2021/10/24 02:16:05;;;;;;;26.42;8.30;;;;;;;-141.50;100.00;63355.56;4938990;28;20050;-83
2021/10/24 02:18:31;;;;;;;24.15;7.57;;;;;;;-141.50;100.00;63355.56;4957057;28;20046;-81
2021/10/24 02:20:58;;;;;;;21.30;7.40;;;;;;;-141.50;100.00;63355.56;4940565;28;20055;-82
2021/10/24 02:23:24;;;;;;;20.73;7.45;;;;;;;-141.50;100.00;63355.56;4957424;28;20073;-81
2021/10/24 02:25:51;;;;;;;18.65;7.47;;;;;;;-141.50;100.00;63355.56;4957206;28;20052;-82
2021/10/24 02:28:17;;;;;;;18.70;6.63;;;;;;;-141.50;100.00;63355.56;4941921;28;20051;-81
2021/10/24 02:30:44;;;;;;;19.20;8.40;;;;;;;-141.50;100.00;63355.56;4955694;28;20053;-82
2021/10/24 02:33:10;;;;;;;17.60;7.63;;;;;;;-141.50;100.00;63355.56;4958621;28;20047;-82
2021/10/24 02:35:37;;;;;;;19.55;7.22;;;;;;;-141.50;100.00;63355.56;4977698;28;20054;-82
2021/10/24 02:38:04;;;;;;;19.30;6.75;;;;;;;-141.50;100.00;63355.56;4943971;28;20082;-83
2021/10/24 02:40:31;;;;;;;13.00;6.70;;;;;;;-141.50;100.00;63355.56;4974777;28;20047;-82
2021/10/24 02:42:58;;;;;;;19.33;7.32;;;;;;;-141.50;100.00;63355.56;4940866;28;20066;-81
2021/10/24 02:45:25;;;;;;;16.23;6.75;;;;;;;-141.50;100.00;63355.56;4958231;28;20411;-82
2021/10/24 02:47:52;;;;;;;19.15;6.93;;;;;;;-141.50;100.00;63355.56;4974008;28;20195;-81
2021/10/24 02:50:19;;;;;;;18.20;6.70;;;;;;;-141.50;100.00;63355.56;4957300;28;20519;-82
2021/10/24 02:52:46;;;;;;;21.83;7.28;;;;;;;-141.50;100.00;63355.56;4956752;28;20047;-81
2021/10/24 02:55:12;;;;;;;17.13;6.28;;;;;;;-141.50;100.00;63355.56;4957617;28;20636;-81
2021/10/24 02:57:39;;;;;;;19.38;6.63;;;;;;;-141.50;100.00;63355.56;4957716;28;20050;-82
2021/10/24 03:00:07;;;;;;;18.92;7.10;;;;;;;-141.50;100.00;63355.56;4958472;28;20046;-81
2021/10/24 03:02:36;;;;;;;14.80;6.32;;;;;;;-141.50;100.00;63355.56;4943447;28;20047;-82
2021/10/24 03:05:08;;;;;;;15.90;6.18;;;;;;;-141.50;100.00;63355.56;4953605;28;20047;-83
2021/10/24 03:07:35;;;;;;;14.02;6.10;;;;;;;-141.50;100.00;63355.56;4954873;28;20051;-82
2021/10/24 03:10:03;;;;;;;15.02;6.20;;;;;;;-141.50;100.00;63355.56;4975014;28;20043;-80
2021/10/24 03:12:29;;;;;;;19.27;6.10;;;;;;;-141.50;100.00;63355.56;4958409;28;20401;-82
2021/10/24 03:14:56;;;;;;;18.58;6.82;;;;;;;-141.50;100.00;63355.56;4960036;28;20046;-82
2021/10/24 03:17:23;;;;;;;14.57;6.10;;;;;;;-141.50;100.00;63355.56;4960940;28;20119;-81
2021/10/24 03:19:49;;;;;;;15.38;6.82;;;;;;;-141.50;100.00;63355.56;4963005;28;20046;-82
2021/10/24 03:22:16;;;;;;;17.92;6.13;;;;;;;-141.50;100.00;63355.56;4943709;28;20101;-81
2021/10/24 03:24:42;;;;;;;17.75;6.38;;;;;;;-141.50;100.00;63355.56;4977628;28;20055;-83
2021/10/24 03:27:09;;;;;;;20.42;6.78;;;;;;;-141.50;100.00;63355.56;4979535;28;20054;-82
2021/10/24 03:29:36;;;;;;;20.45;6.65;;;;;;;-141.50;100.00;63355.56;4965829;28;20050;-82
2021/10/24 03:32:03;;;;;;;20.30;7.07;;;;;;;-141.50;100.00;63355.56;4963512;28;20078;-82
2021/10/24 03:34:29;;;;;;;15.93;6.65;;;;;;;-141.50;100.00;63355.56;4964177;28;20053;-81
2021/10/24 03:36:56;;;;;;;22.33;6.47;;;;;;;-141.50;100.00;63355.56;4980169;28;20438;-81
2021/10/24 03:39:22;;;;;;;18.70;6.38;;;;;;;-141.50;100.00;63355.56;4982319;28;20046;-82
2021/10/24 03:41:49;;;;;;;19.90;7.15;;;;;;;-141.50;100.00;63355.56;4961399;28;20085;-81
2021/10/24 03:44:16;;;;;;;18.58;7.15;;;;;;;-141.50;100.00;63355.56;4962162;28;20043;-83
2021/10/24 03:46:42;;;;;;;17.33;6.85;;;;;;;-141.50;100.00;63355.56;4982270;28;20481;-82
2021/10/24 03:49:10;;;;;;;19.10;6.43;;;;;;;-141.50;100.00;63355.56;4964356;28;20353;-82
2021/10/24 03:51:36;;;;;;;18.92;6.18;;;;;;;-141.50;100.00;63355.56;4962114;28;20451;-82
2021/10/24 03:54:03;;;;;;;13.55;5.75;;;;;;;-141.50;100.00;63355.56;4981749;28;20412;-82
2021/10/24 03:56:29;;;;;;;16.45;6.55;;;;;;;-141.50;100.00;63355.56;4980440;28;20046;-82
2021/10/24 03:58:57;;;;;;;16.48;5.68;;;;;;;-141.50;100.00;63355.56;4981161;28;20061;-83
2021/10/24 04:01:24;;;;;;;20.08;6.50;;;;;;;-141.50;100.00;63355.56;4963588;28;20130;-82
2021/10/24 04:03:51;;;;;;;17.92;6.20;;;;;;;-141.50;100.00;63355.56;4964068;28;20043;-83
2021/10/24 04:06:17;;;;;;;16.45;6.03;;;;;;;-141.50;100.00;63355.56;4964165;28;20062;-83
2021/10/24 04:08:44;;;;;;;18.00;5.43;;;;;;;-141.50;100.00;63355.56;4964751;28;20035;-83
2021/10/24 04:11:11;;;;;;;17.80;5.68;;;;;;;-141.50;100.00;63355.56;4961284;28;20057;-82
2021/10/24 04:13:38;;;;;;;16.58;5.57;;;;;;;-141.50;100.00;63355.56;4948537;28;20043;-82
2021/10/24 04:16:05;;;;;;;15.35;5.65;;;;;;;-141.50;100.00;63355.56;4944953;28;20047;-81
2021/10/24 04:18:32;;;;;;;17.20;6.07;;;;;;;-141.50;100.00;63355.56;4978670;28;20440;-82
2021/10/24 04:21:00;;;;;;;20.80;5.55;;;;;;;-141.50;100.00;63355.56;4977466;28;20070;-82
2021/10/24 04:23:28;;;;;;;17.02;5.85;;;;;;;-141.50;100.00;63355.56;4978622;28;20062;-81
2021/10/24 04:25:55;;;;;;;14.95;5.32;;;;;;;-141.50;100.00;63355.56;4944166;28;20061;-83
2021/10/24 04:28:22;;;;;;;17.67;5.75;;;;;;;-141.50;100.00;63355.56;4958567;28;20499;-81
2021/10/24 04:30:49;;;;;;;13.07;5.75;;;;;;;-141.50;100.00;63355.56;4940425;28;20046;-81
2021/10/24 04:33:16;;;;;;;13.18;5.40;;;;;;;-141.50;100.00;63355.56;4958396;28;20431;-81
2021/10/24 04:35:43;;;;;;;14.25;5.10;;;;;;;-141.50;100.00;63355.56;4986512;23;20047;-77
2021/10/24 04:38:09;;;;;;;21.52;5.28;;;;;;;-141.50;100.00;63355.56;4968767;28;20050;-77
2021/10/24 04:40:37;;;;;;;17.85;5.00;;;;;;;-141.50;100.00;63355.56;4970220;28;20407;-78
2021/10/24 04:43:04;;;;;;;15.88;5.40;;;;;;;-141.50;100.00;63355.56;4970324;28;20047;-77
2021/10/24 04:45:33;;;;;;;16.40;5.00;;;;;;;-141.50;100.00;63355.56;4971561;28;20065;-78
2021/10/24 04:47:59;;;;;;;14.85;5.20;;;;;;;-141.50;100.00;63355.56;4953144;28;20105;-77
2021/10/24 04:50:26;;;;;;;15.05;4.90;;;;;;;-141.50;100.00;63355.56;4971277;28;20043;-78
2021/10/24 04:52:53;;;;;;;14.27;5.18;;;;;;;-141.50;100.00;63355.56;4969328;28;20126;-77
2021/10/24 04:55:25;;;;;;;15.27;5.25;;;;;;;-141.50;100.00;63355.56;4971331;28;20054;-76
2021/10/24 04:57:52;;;;;;;12.32;4.57;;;;;;;-141.50;100.00;63355.56;4971056;28;20053;-77
2021/10/24 05:00:19;;;;;;;17.70;4.60;;;;;;;-141.50;100.00;63355.56;4953535;28;20416;-77
2021/10/24 05:02:45;;;;;;;15.57;5.30;;;;;;;-141.50;100.00;63355.56;4952620;28;20038;-78
2021/10/24 05:05:13;;;;;;;10.77;4.82;;;;;;;-141.50;100.00;63355.56;4970287;28;20049;-78
2021/10/24 05:07:40;;;;;;;14.65;5.03;;;;;;;-141.50;100.00;63355.56;4952476;28;20051;-77
2021/10/24 05:10:06;;;;;;;14.20;4.47;;;;;;;-141.50;100.00;63355.56;4952875;28;20408;-77
2021/10/24 05:12:33;;;;;;;14.60;5.18;;;;;;;-141.50;100.00;63355.56;4968725;28;20038;-78
2021/10/24 05:15:00;;;;;;;17.42;4.95;;;;;;;-141.50;100.00;63355.56;4953509;28;20058;-77
2021/10/24 05:17:26;;;;;;;15.55;4.72;;;;;;;-141.50;100.00;63355.56;4969652;28;20093;-77
2021/10/24 05:19:53;;;;;;;14.20;4.65;;;;;;;-141.50;100.00;63355.56;4953592;28;20101;-77
2021/10/24 05:22:20;;;;;;;14.45;4.72;;;;;;;-141.50;100.00;63355.56;4951995;28;20046;-78
2021/10/24 05:24:48;;;;;;;13.00;4.20;;;;;;;-141.50;100.00;63355.56;4953350;28;20047;-77
2021/10/24 05:27:15;;;;;;;12.05;4.60;;;;;;;-141.50;100.00;63355.56;4970666;28;20050;-77
2021/10/24 05:29:41;;;;;;;13.48;4.53;;;;;;;-141.50;100.00;63355.56;4971276;28;20491;-76
2021/10/24 05:32:08;;;;;;;12.98;4.20;;;;;;;-141.50;100.00;63355.56;4949959;28;20046;-78
2021/10/24 05:34:35;;;;;;;11.65;4.15;;;;;;;-141.50;100.00;63355.56;4970176;28;20054;-77
2021/10/24 05:37:02;;;;;;;10.88;3.88;;;;;;;-141.50;100.00;63355.56;4952661;28;20047;-77
2021/10/24 05:39:29;;;;;;;12.82;4.78;;;;;;;-141.50;100.00;63355.56;4969844;28;20043;-77
2021/10/24 05:41:57;;;;;;;16.17;4.47;;;;;;;-141.50;100.00;63355.56;4953014;28;20329;-75
2021/10/24 05:44:23;;;;;;;13.43;4.40;;;;;;;-141.50;100.00;63355.56;4970663;28;20427;-77
2021/10/24 05:46:52;;;;;;;14.25;3.95;;;;;;;-141.50;100.00;63355.56;4969836;28;20517;-78
2021/10/24 05:49:20;;;;;;;11.43;4.15;;;;;;;-141.50;100.00;63355.56;4970027;28;20043;-78
2021/10/24 05:51:48;;;;;;;21.00;4.75;;;;;;;-141.50;100.00;63355.56;4968267;28;20538;-77
2021/10/24 05:54:14;;;;;;;11.70;3.92;;;;;;;-141.50;100.00;63355.56;4953506;28;20057;-78
2021/10/24 05:56:41;;;;;;;13.73;4.28;;;;;;;-141.50;100.00;63355.56;4969883;28;20043;-78
2021/10/24 05:59:07;;;;;;;16.20;5.25;;;;;;;-141.50;100.00;63355.56;4970987;28;20043;-77
2021/10/24 06:01:34;;;;;;;20.40;5.65;;;;;;;-141.50;100.00;63355.56;4969680;28;20050;-75
2021/10/24 06:04:03;;;;;;;13.57;5.93;;;;;;;-141.50;100.00;63355.56;4952734;28;20074;-77
2021/10/24 06:06:30;;;;;;;19.08;6.00;;;;;;;-141.50;100.00;63355.56;4936183;28;20492;-77
2021/10/24 06:08:59;;;;;;;16.77;5.63;;;;;;;-141.50;100.00;63355.56;4953179;28;20067;-78
2021/10/24 06:11:34;;;;;;;17.73;5.50;;;;;;;-141.50;100.00;63355.56;4969906;28;20535;-77
2021/10/24 06:14:01;;;;;;;24.35;6.03;;;;;;;-141.50;100.00;63355.56;4968541;28;20058;-76
2021/10/24 06:16:28;;;;;;;21.20;5.80;;;;;;;-141.50;100.00;63355.56;4968950;28;20051;-76
2021/10/24 06:18:55;;;;;;;16.50;5.63;;;;;;;-141.50;100.00;63355.56;4969673;28;20125;-75
2021/10/24 06:21:21;;;;;;;14.90;5.15;;;;;;;-141.50;100.00;63355.56;4970473;28;20043;-77
2021/10/24 06:23:48;;;;;;;16.67;5.80;;;;;;;-141.50;100.00;63355.56;4936118;28;20054;-77
2021/10/24 06:26:14;;;;;;;15.85;5.68;;;;;;;-141.50;100.00;63355.56;4951936;28;20558;-77
2021/10/24 06:28:41;;;;;;;16.80;5.13;;;;;;;-141.50;100.00;63355.56;4952433;28;20047;-77
2021/10/24 06:31:08;;;;;;;12.60;5.60;;;;;;;-141.50;100.00;63355.56;4970138;28;20070;-77
2021/10/24 06:33:35;;;;;;;15.73;5.50;;;;;;;-141.50;100.00;63355.56;4967739;28;20039;-76
2021/10/24 06:36:03;;;;;;;18.27;5.45;;;;;;;-141.50;100.00;63355.56;4951816;28;20039;-76
2021/10/24 06:38:31;;;;;;;13.98;5.07;;;;;;;-141.50;100.00;63355.56;4952777;28;20510;-77
2021/10/24 06:40:58;;;;;;;16.17;4.82;;;;;;;-141.50;100.00;63355.56;4952487;28;20062;-77
2021/10/24 06:43:24;;;;;;;16.35;4.97;;;;;;;-141.50;100.00;63355.56;4969400;28;20051;-77
2021/10/24 06:45:52;;;;;;;12.57;5.25;;;;;;;-141.50;100.00;63355.56;4969267;28;20064;-77
2021/10/24 06:48:18;;;;;;;18.58;5.63;;;;;;;-141.50;100.00;63355.56;4969214;28;20519;-77
2021/10/24 06:50:45;;;;;;;17.08;6.07;;;;;;;-141.50;100.00;63355.56;4969157;28;20043;-76
2021/10/24 06:53:17;;;;;;;17.35;5.57;;;;;;;-141.50;100.00;63355.56;4967269;28;20042;-77
2021/10/24 06:55:43;;;;;;;14.13;4.65;;;;;;;-141.50;100.00;63355.56;4969784;28;20047;-78
2021/10/24 06:58:10;;;;;;;12.65;4.38;;;;;;;-141.50;100.00;63355.56;4968708;28;20047;-79
2021/10/24 07:00:36;;;;;;;19.50;4.72;;;;;;;-141.50;100.00;63355.56;4969889;28;20050;-78
2021/10/24 07:03:03;;;;;;;18.35;4.88;;;;;;;-141.50;100.00;63355.56;4969189;28;20061;-77
2021/10/24 07:05:31;;;;;;;14.60;4.43;;;;;;;-141.50;100.00;63355.56;4968982;28;20078;-77
2021/10/24 07:08:00;;;;;;;15.88;4.63;;;;;;;-141.50;100.00;63355.56;4969681;28;20042;-77
2021/10/24 07:10:30;;;;;;;13.63;4.38;;;;;;;-141.50;100.00;63355.56;4970018;28;20070;-77
2021/10/24 07:12:57;;;;;;;19.83;5.05;;;;;;;-141.50;100.00;63355.56;4948972;28;20043;-78
2021/10/24 07:15:24;;;;;;;17.50;4.22;;;;;;;-141.50;100.00;63355.56;4971094;28;20051;-78
2021/10/24 07:17:51;;;;;;;15.88;4.90;;;;;;;-141.50;100.00;63355.56;4969468;28;20055;-79
2021/10/24 07:20:18;;;;;;;14.70;4.63;;;;;;;-141.50;100.00;63355.56;4952100;28;20109;-78
2021/10/24 07:22:46;;;;;;;21.25;4.68;;;;;;;-141.50;100.00;63355.56;4969299;28;20050;-79
2021/10/24 07:25:13;;;;;;;13.60;4.45;;;;;;;-141.50;100.00;63355.56;4952960;28;20121;-77
2021/10/24 07:27:41;;;;;;;14.98;4.45;;;;;;;-141.50;100.00;63355.56;4968873;28;20613;-78
2021/10/24 07:30:08;;;;;;;27.40;4.65;;;;;;;-141.50;100.00;63355.56;4952852;28;20301;-78
2021/10/24 07:32:35;;;;;;;12.40;4.20;;;;;;;-141.50;100.00;63355.56;4950113;28;20546;-79
2021/10/24 07:35:05;;;;;;;20.27;4.18;;;;;;;-141.50;100.00;63355.56;4969584;28;20295;-78
2021/10/24 07:37:32;;;;;;;14.75;3.97;;;;;;;-141.50;100.00;63355.56;4972196;28;20046;-78
2021/10/24 07:39:59;;;;;;;20.50;3.97;;;;;;;-141.50;100.00;63355.56;4959569;28;20050;-76
2021/10/24 07:42:26;;;;;;;15.90;3.50;;;;;;;-141.50;100.00;63355.56;4963238;28;20050;-77
2021/10/24 07:44:52;;;;;;;14.63;3.80;;;;;;;-141.50;100.00;63355.56;4970229;28;20126;-77
2021/10/24 07:47:19;;;;;;;15.40;3.53;;;;;;;-141.50;100.00;63355.56;4969222;28;20043;-78
2021/10/24 07:49:46;;;;;;;17.52;3.53;;;;;;;-141.50;100.00;63355.56;4969863;28;20093;-78
2021/10/24 07:52:14;;;;;;;17.98;4.78;;;;;;;-141.50;100.00;63355.56;4951629;28;20053;-78
2021/10/24 07:54:41;;;;;;;10.75;3.50;;;;;;;-141.50;100.00;63355.56;4970115;28;20046;-78
2021/10/24 07:57:07;;;;;;;14.98;3.30;;;;;;;-141.50;100.00;63355.56;4969170;28;20130;-75
2021/10/24 07:59:34;;;;;;;11.57;3.20;;;;;;;-141.50;100.00;63355.56;4935500;28;20050;-75
2021/10/24 08:02:01;;;;;;;17.05;3.67;;;;;;;-141.50;100.00;63355.56;4951748;28;20043;-78
2021/10/24 08:04:33;;;;;;;8.43;3.13;;;;;;;-141.50;100.00;63355.56;4971481;28;20066;-78
2021/10/24 08:07:03;;;;;;;11.35;3.17;;;;;;;-141.50;100.00;63355.56;4938195;28;20046;-77
2021/10/24 08:09:30;;;;;;;15.95;3.33;;;;;;;-141.50;100.00;63355.56;4954847;28;20046;-78
2021/10/24 08:12:00;;;;;;;14.75;3.15;;;;;;;-141.50;100.00;63355.56;4973035;28;20166;-77
2021/10/24 08:14:27;;;;;;;14.85;3.08;;;;;;;-141.50;100.00;63355.56;4955195;28;20046;-78
2021/10/24 08:16:54;;;;;;;13.90;3.22;;;;;;;-141.50;100.00;63355.56;4972616;28;20462;-77
2021/10/24 08:19:21;;;;;;;11.27;3.03;;;;;;;-141.50;100.00;63355.56;4971795;28;20404;-77
2021/10/24 08:21:49;;;;;;;13.05;2.70;;;;;;;-141.50;100.00;63355.56;4954769;28;20081;-78
2021/10/24 08:24:17;;;;;;;12.77;3.40;;;;;;;-141.50;100.00;63355.56;4954966;28;20468;-77
2021/10/24 08:26:44;;;;;;;11.90;4.05;;;;;;;-141.50;100.00;63355.56;4954923;28;20043;-78
2021/10/24 08:29:11;;;;;;;12.68;3.38;;;;;;;-141.50;100.00;63355.56;4972445;28;20047;-79
2021/10/24 08:31:40;;;;;;;11.30;3.08;;;;;;;-141.50;100.00;63355.56;4972679;28;20596;-77
2021/10/24 08:34:07;;;;;;;10.85;3.47;;;;;;;-141.50;100.00;63355.56;4970528;28;20046;-79
2021/10/24 08:36:33;;;;;;;13.48;3.80;;;;;;;-141.50;100.00;63355.56;4974769;28;20050;-78
2021/10/24 08:39:01;;;;;;;9.85;2.90;;;;;;;-141.50;100.00;63355.56;4989738;28;20050;-78
2021/10/24 08:41:29;;;;;;;9.02;2.90;;;;;;;-141.50;100.00;63355.56;4955887;28;20043;-77
2021/10/24 08:43:58;;;;;;;12.80;3.55;;;;;;;-141.50;100.00;63355.56;4992674;28;20051;-78
2021/10/24 08:46:24;;;;;;;13.30;2.97;;;;;;;-141.50;100.00;63355.56;4979919;28;20069;-76
2021/10/24 08:48:52;;;;;;;11.75;3.08;;;;;;;-141.50;100.00;63355.56;4955148;28;20039;-77
2021/10/24 08:51:19;;;;;;;8.30;2.60;;;;;;;-141.50;100.00;63355.56;4954215;28;20039;-78
2021/10/24 08:53:48;;;;;;;7.68;2.22;;;;;;;-141.50;100.00;63355.56;4950266;28;20046;-77
2021/10/24 08:56:23;;;;;;;9.15;2.60;;;;;;;-141.50;100.00;63355.56;4953684;28;20054;-77
2021/10/24 08:58:51;;;;;;;9.50;2.35;;;;;;;-141.50;100.00;63355.56;4971829;28;20074;-76
2021/10/24 09:01:19;;;;;;;10.70;2.25;;;;;;;-141.50;100.00;63355.56;4971494;28;20047;-77
2021/10/24 09:04:04;;;;;;;12.32;2.20;;;;;;;-141.50;100.00;63355.56;4971163;28;20038;-78
2021/10/24 09:06:44;;;;;;;6.43;1.70;;;;;;;-141.50;100.00;63355.56;4954001;28;20503;-78
2021/10/24 09:09:16;;;;;;;6.40;1.83;;;;;;;-141.50;100.00;63355.56;4954724;28;20053;-78
2021/10/24 09:11:51;;;;;;;5.43;1.30;;;;;;;-141.50;100.00;63355.56;4972999;28;20430;-78
2021/10/24 09:14:41;;;;;;;6.73;1.50;;;;;;;-141.50;100.00;63355.56;4959965;28;20057;-78
2021/10/24 09:17:11;;;;;;;8.85;1.73;;;;;;;-141.50;100.00;63355.56;4989858;28;20062;-78
2021/10/24 09:19:40;;;;;;;6.25;1.77;;;;;;;-141.50;100.00;63355.56;4989389;28;20042;-78
2021/10/24 09:22:16;;;;;;;6.88;1.48;;;;;;;-141.50;100.00;63355.56;4962002;28;20121;-78
2021/10/24 09:25:07;;;;;;;7.38;1.60;;;;;;;-141.50;100.00;63355.56;4984587;28;20050;-79
2021/10/24 09:27:56;;;;;;;4.53;1.55;;;;;;;-141.50;100.00;63355.56;4989301;28;20043;-79
2021/10/24 09:30:27;;;;;;;6.75;1.70;;;;;;;-141.50;100.00;63355.56;4987875;28;20047;-79
2021/10/24 09:33:04;;;;;;;4.18;1.55;;;;;;;-141.50;100.00;63355.56;4969896;28;20073;-79
2021/10/24 09:35:39;;;;;;;8.85;1.70;;;;;;;-141.50;100.00;63355.56;4985632;28;20053;-77
2021/10/24 09:38:12;;;;;;;5.25;1.45;;;;;;;-141.50;100.00;63355.56;4970770;28;20051;-78
2021/10/24 09:40:47;;;;;;;7.40;1.35;;;;;;;-141.50;100.00;63355.56;4986245;28;20050;-77
2021/10/24 09:43:17;;;;;;;5.20;1.38;;;;;;;-141.50;100.00;63355.56;4956500;28;20463;-77
2021/10/24 09:46:05;;;;;;;6.63;1.95;;;;;;;-141.50;100.00;63355.56;4975357;28;20089;-79
2021/10/24 09:48:33;;;;;;;6.32;1.70;;;;;;;-141.50;100.00;63355.56;4962902;28;20169;-78
2021/10/24 09:51:03;;;;;;;6.05;1.85;;;;;;;-141.50;100.00;63355.56;4954700;28;20050;-79
2021/10/24 09:53:31;;;;;;;7.80;1.88;;;;;;;-141.50;100.00;63355.56;4954536;28;20055;-77
2021/10/24 09:56:02;;;;;;;6.70;1.75;;;;;;;-141.50;100.00;63355.56;4973199;28;20071;-78
2021/10/24 09:58:47;;;;;;;4.50;1.35;;;;;;;-141.50;100.00;63355.56;4941655;28;20051;-78
2021/10/24 10:01:18;;;;;;;4.80;1.27;;;;;;;-141.50;100.00;63355.56;4973323;28;20043;-78
2021/10/24 10:03:47;;;;;;;5.57;1.52;;;;;;;-141.50;100.00;63355.56;4972213;28;20606;-78
2021/10/24 10:06:19;;;;;;;6.13;1.50;;;;;;;-141.50;100.00;63355.56;4971808;28;20158;-78
2021/10/24 10:08:45;;;;;;;3.65;1.15;;;;;;;-141.50;100.00;63355.56;4956548;28;20046;-78
2021/10/24 10:11:18;;;;;;;7.95;1.40;;;;;;;-141.50;100.00;63355.56;4957056;28;20051;-78
2021/10/24 10:13:48;;;;;;;11.35;1.52;;;;;;;-141.50;100.00;63355.56;4951047;28;20058;-76
2021/10/24 10:16:29;;;;;;;3.92;1.35;;;;;;;-141.50;100.00;63355.56;4973742;28;20062;-79
2021/10/24 10:18:55;;;;;;;5.43;1.58;;;;;;;-141.50;100.00;63355.56;4977988;28;20051;-79
2021/10/24 10:21:43;;;;;;;6.10;1.75;;;;;;;-141.50;100.00;63355.56;4957287;28;20527;-78
2021/10/24 10:24:35;;;;;;;5.13;1.45;;;;;;;-141.50;100.00;63355.56;4956211;28;20049;-79
2021/10/24 10:27:23;;;;;;;5.35;1.88;;;;;;;-141.50;100.00;63355.56;4971618;28;20043;-78
2021/10/24 10:29:51;;;;;;;6.43;1.95;;;;;;;-141.50;100.00;63355.56;4955190;28;20408;-79
2021/10/24 10:32:19;;;;;;;5.82;1.70;;;;;;;-141.50;100.00;63355.56;4970876;28;20086;-77
2021/10/24 10:34:58;;;;;;;4.53;1.63;;;;;;;-141.50;100.00;63355.56;4982201;23;20051;-81
2021/10/24 10:37:49;;;;;;;4.95;1.73;;;;;;;-141.50;100.00;63355.56;4957451;28;20328;-79
2021/10/24 10:40:21;;;;;;;5.20;1.38;;;;;;;-141.50;100.00;63355.56;4959708;28;20051;-82
2021/10/24 10:42:51;;;;;;;4.38;1.52;;;;;;;-141.50;100.00;63355.56;4977975;28;20043;-81
2021/10/24 10:45:20;;;;;;;7.45;1.77;;;;;;;-141.50;100.00;63355.56;4941101;29;20043;-83
2021/10/24 10:48:01;;;;;;;4.50;1.30;;;;;;;-141.50;100.00;63355.56;4957166;28;20500;-82
2021/10/24 10:50:27;;;;;;;7.85;1.55;;;;;;;-141.50;100.00;63355.56;4987398;23;20101;-86
2021/10/24 10:53:00;;;;;;;4.63;1.45;;;;;;;-141.50;100.00;63355.56;4959991;28;20058;-83
2021/10/24 10:56:00;;;;;;;4.47;1.27;;;;;;;-141.50;100.00;63355.56;4958104;28;20054;-83
2021/10/24 10:58:38;;;;;;;5.22;1.58;;;;;;;-141.50;100.00;63355.56;4978600;28;20035;-84
2021/10/24 11:01:06;;;;;;;4.85;1.30;;;;;;;-141.50;100.00;63355.56;4960175;28;20046;-84
2021/10/24 11:03:40;;;;;;;5.35;1.33;;;;;;;-141.50;100.00;63355.56;4958188;28;20050;-83
2021/10/24 11:06:25;;;;;;;6.82;2.10;;;;;;;-141.50;100.00;63355.56;4959416;28;20089;-83
2021/10/24 11:09:03;;;;;;;5.22;1.58;;;;;;;-141.50;100.00;63355.56;4943632;28;20047;-85